createdAt,value
2022-11-28T00:01:20.203Z,3.10
2022-11-28T00:03:48.116Z,3.77
2022-11-28T00:06:16.329Z,3.70
2022-11-28T00:08:44.433Z,3.67
2022-11-28T00:11:14.293Z,3.30
2022-11-28T00:13:42.450Z,2.87
2022-11-28T00:16:17.174Z,2.97
2022-11-28T00:18:46.577Z,3.30
2022-11-28T00:21:16.279Z,3.20
2022-11-28T00:23:45.444Z,2.93
2022-11-28T00:26:17.703Z,3.13
2022-11-28T00:28:45.593Z,3.13
2022-11-28T00:31:14.998Z,3.50
2022-11-28T00:33:43.017Z,3.50
2022-11-28T00:36:12.398Z,3.20
2022-11-28T00:38:40.349Z,3.20
2022-11-28T00:41:10.188Z,3.23
2022-11-28T00:43:38.572Z,3.40
2022-11-28T00:46:07.228Z,3.73
2022-11-28T00:48:35.620Z,3.53
2022-11-28T00:51:07.743Z,3.67
2022-11-28T00:53:37.549Z,3.33
2022-11-28T00:56:06.559Z,3.27
2022-11-28T00:58:34.773Z,3.60
2022-11-28T01:01:09.054Z,3.23
2022-11-28T01:03:36.976Z,3.10
2022-11-28T01:06:05.460Z,3.53
2022-11-28T01:08:33.280Z,3.37
2022-11-28T01:11:02.566Z,3.50
2022-11-28T01:13:30.661Z,3.37
2022-11-28T01:15:58.837Z,3.47
2022-11-28T01:18:26.755Z,2.90
2022-11-28T01:20:54.483Z,3.47
2022-11-28T01:23:22.285Z,3.40
2022-11-28T01:25:50.083Z,3.63
2022-11-28T01:28:19.294Z,3.30
2022-11-28T01:30:47.081Z,2.90
2022-11-28T01:33:14.904Z,3.50
2022-11-28T01:35:42.795Z,3.30
2022-11-28T01:38:10.595Z,3.27
2022-11-28T01:40:45.248Z,3.57
2022-11-28T01:43:13.276Z,3.27
2022-11-28T01:45:42.527Z,3.20
2022-11-28T01:48:12.931Z,3.37
2022-11-28T01:50:41.782Z,3.80
2022-11-28T01:53:12.093Z,3.63
2022-11-28T01:55:47.705Z,3.43
2022-11-28T01:58:16.108Z,3.53
2022-11-28T02:00:45.495Z,3.40
2022-11-28T02:03:18.855Z,3.20
2022-11-28T02:05:48.457Z,3.10
2022-11-28T02:08:16.260Z,3.23
2022-11-28T02:10:54.960Z,3.43
2022-11-28T02:13:37.163Z,3.80
2022-11-28T02:16:29.160Z,3.40
2022-11-28T02:19:10.179Z,3.60
2022-11-28T02:21:51.627Z,3.40
2022-11-28T02:24:46.289Z,3.67
2022-11-28T02:27:48.927Z,3.47
2022-11-28T02:30:20.846Z,3.70
2022-11-28T02:33:17.588Z,3.50
2022-11-28T02:35:56.826Z,4.23
2022-11-28T02:38:36.684Z,3.97
2022-11-28T02:41:10.015Z,3.70
2022-11-28T02:43:45.205Z,3.93
2022-11-28T02:46:17.861Z,4.03
2022-11-28T02:48:51.246Z,3.60
2022-11-28T02:51:25.118Z,3.77
2022-11-28T02:53:54.859Z,3.97
2022-11-28T02:56:25.401Z,4.27
2022-11-28T02:58:54.842Z,3.93
2022-11-28T03:01:27.020Z,3.97
2022-11-28T03:04:10.537Z,4.07
2022-11-28T03:06:48.118Z,3.87
2022-11-28T03:09:32.144Z,4.10
2022-11-28T03:12:11.192Z,3.20
2022-11-28T03:14:52.193Z,4.10
2022-11-28T03:17:32.626Z,4.33
2022-11-28T03:20:16.127Z,4.30
2022-11-28T03:22:50.786Z,4.70
2022-11-28T03:25:28.760Z,4.13
2022-11-28T03:28:04.976Z,4.07
2022-11-28T03:30:39.171Z,4.37
2022-11-28T03:33:08.039Z,4.80
2022-11-28T03:35:44.195Z,4.33
2022-11-28T03:38:16.927Z,3.93
2022-11-28T03:40:50.568Z,4.33
2022-11-28T03:43:23.253Z,4.27
2022-11-28T03:45:55.033Z,4.43
2022-11-28T03:48:27.614Z,4.37
2022-11-28T03:51:01.758Z,4.40
2022-11-28T03:53:37.437Z,4.80
2022-11-28T03:56:10.576Z,4.90
2022-11-28T03:58:45.076Z,4.67
2022-11-28T04:01:22.654Z,4.50
2022-11-28T04:03:56.320Z,4.77
2022-11-28T04:06:31.113Z,4.30
2022-11-28T04:09:04.666Z,4.53
2022-11-28T04:11:38.406Z,4.57
2022-11-28T04:14:13.534Z,4.13
2022-11-28T04:16:53.584Z,4.53
2022-11-28T04:19:29.631Z,4.40
2022-11-28T04:22:04.084Z,4.60
2022-11-28T04:24:37.661Z,4.77
2022-11-28T04:27:09.735Z,4.83
2022-11-28T04:29:43.483Z,4.67
2022-11-28T04:32:13.816Z,5.07
2022-11-28T04:34:44.493Z,5.33
2022-11-28T04:37:15.974Z,5.03
2022-11-28T04:39:46.174Z,4.80
2022-11-28T04:42:17.881Z,4.70
2022-11-28T04:44:50.910Z,4.40
2022-11-28T04:47:19.313Z,3.83
2022-11-28T04:49:48.179Z,4.53
2022-11-28T04:52:22.428Z,4.83
2022-11-28T04:54:58.725Z,4.13
2022-11-28T04:57:32.828Z,4.70
2022-11-28T05:00:05.524Z,4.77
2022-11-28T05:02:34.783Z,4.33
2022-11-28T05:05:02.940Z,4.17
2022-11-28T05:07:32.173Z,4.40
2022-11-28T05:10:00.503Z,4.80
2022-11-28T05:12:28.319Z,4.73
2022-11-28T05:14:56.198Z,5.43
2022-11-28T05:17:24.016Z,4.93
2022-11-28T05:19:51.874Z,5.17
2022-11-28T05:22:19.717Z,3.40
2022-11-28T05:24:48.927Z,4.87
2022-11-28T05:27:16.978Z,5.13
2022-11-28T05:29:51.955Z,4.53
2022-11-28T05:32:20.187Z,4.80
2022-11-28T05:34:48.072Z,5.00
2022-11-28T05:37:16.687Z,5.50
2022-11-28T05:39:44.892Z,5.00
2022-11-28T05:42:14.419Z,4.80
2022-11-28T05:44:42.520Z,4.43
2022-11-28T05:47:10.731Z,5.43
2022-11-28T05:49:38.583Z,5.60
2022-11-28T05:52:06.569Z,5.43
2022-11-28T05:54:34.428Z,5.10
2022-11-28T05:57:02.906Z,5.33
2022-11-28T05:59:32.033Z,4.63
2022-11-28T06:02:00.116Z,5.10
2022-11-28T06:04:28.621Z,5.13
2022-11-28T06:06:56.551Z,5.10
2022-11-28T06:09:26.055Z,5.07
2022-11-28T06:11:54.515Z,5.60
2022-11-28T06:14:22.814Z,5.20
2022-11-28T06:16:52.096Z,5.27
2022-11-28T06:19:20.285Z,5.67
2022-11-28T06:21:50.948Z,5.40
2022-11-28T06:24:18.912Z,5.40
2022-11-28T06:26:47.393Z,5.10
2022-11-28T06:29:15.244Z,5.67
2022-11-28T06:31:43.400Z,5.57
2022-11-28T06:34:16.311Z,4.87
2022-11-28T06:36:44.512Z,5.60
2022-11-28T06:39:14.870Z,5.40
2022-11-28T06:41:43.595Z,5.40
2022-11-28T06:44:14.038Z,5.70
2022-11-28T06:46:42.845Z,4.93
2022-11-28T06:49:13.742Z,5.93
2022-11-28T06:51:42.608Z,5.23
2022-11-28T06:54:10.589Z,5.00
2022-11-28T06:56:40.504Z,4.97
2022-11-28T06:59:08.398Z,5.70
2022-11-28T07:01:36.294Z,5.33
2022-11-28T07:04:04.422Z,5.07
2022-11-28T07:06:35.364Z,5.80
2022-11-28T07:09:03.178Z,5.30
2022-11-28T07:11:32.880Z,5.33
2022-11-28T07:14:03.519Z,5.63
2022-11-28T07:16:33.918Z,5.63
2022-11-28T07:19:02.323Z,5.60
2022-11-28T07:21:30.931Z,5.03
2022-11-28T07:24:01.676Z,6.00
2022-11-28T07:26:29.884Z,7.60
2022-11-28T07:28:59.925Z,7.03
2022-11-28T07:31:32.129Z,6.77
2022-11-28T07:34:02.285Z,7.10
2022-11-28T07:36:30.592Z,8.90
2022-11-28T07:39:01.466Z,12.23
2022-11-28T07:41:30.098Z,13.83
2022-11-28T07:44:00.041Z,15.97
2022-11-28T07:46:29.785Z,12.70
2022-11-28T07:49:01.199Z,9.63
2022-11-28T07:51:31.157Z,6.80
2022-11-28T07:54:01.803Z,7.03
2022-11-28T07:56:57.139Z,6.20
2022-11-28T07:59:20.530Z,6.90
2022-11-28T08:01:48.805Z,5.63
2022-11-28T08:04:16.795Z,5.20
2022-11-28T08:06:44.695Z,5.70
2022-11-28T08:09:13.984Z,5.53
2022-11-28T08:11:42.992Z,5.73
2022-11-28T08:14:11.830Z,5.97
2022-11-28T08:16:41.329Z,5.87
2022-11-28T08:19:09.601Z,5.60
2022-11-28T08:21:38.926Z,5.83
2022-11-28T08:24:08.300Z,5.03
2022-11-28T08:26:37.794Z,6.43
2022-11-28T08:29:05.925Z,5.90
2022-11-28T08:31:35.546Z,5.50
2022-11-28T08:34:06.066Z,5.97
2022-11-28T08:36:34.641Z,6.47
2022-11-28T08:39:22.892Z,6.07
2022-11-28T08:41:53.541Z,5.60
2022-11-28T08:44:21.424Z,5.90
2022-11-28T08:46:49.483Z,6.43
2022-11-28T08:49:17.308Z,6.00
2022-11-28T08:51:45.193Z,6.40
2022-11-28T08:54:13.384Z,5.63
2022-11-28T08:56:41.270Z,5.97
2022-11-28T08:59:11.004Z,6.10
2022-11-28T09:01:39.572Z,6.70
2022-11-28T09:04:07.575Z,6.07
2022-11-28T09:06:36.692Z,6.67
2022-11-28T09:09:04.828Z,6.00
2022-11-28T09:11:32.984Z,6.70
2022-11-28T09:14:01.116Z,6.20
2022-11-28T09:16:30.442Z,5.00
2022-11-28T09:18:59.514Z,5.47
2022-11-28T09:21:27.800Z,5.93
2022-11-28T09:23:57.265Z,5.63
2022-11-28T09:26:26.349Z,6.53
2022-11-28T09:28:54.903Z,6.33
2022-11-28T09:31:23.160Z,6.87
2022-11-28T09:33:52.536Z,6.30
2022-11-28T09:36:22.889Z,6.10
2022-11-28T09:38:51.386Z,5.93
2022-11-28T09:41:37.163Z,6.83
2022-11-28T09:44:11.438Z,6.70
2022-11-28T09:46:39.900Z,7.90
2022-11-28T09:49:21.034Z,6.63
2022-11-28T09:51:54.038Z,7.20
2022-11-28T09:54:30.176Z,8.07
2022-11-28T09:56:58.227Z,7.30
2022-11-28T09:59:28.118Z,7.97
2022-11-28T10:02:04.961Z,7.87
2022-11-28T10:04:42.328Z,7.77
2022-11-28T10:07:20.603Z,6.20
2022-11-28T10:09:58.073Z,9.20
2022-11-28T10:12:39.601Z,8.63
2022-11-28T10:15:20.379Z,10.97
2022-11-28T10:17:55.823Z,10.97
2022-11-28T10:20:28.387Z,8.67
2022-11-28T10:22:59.172Z,9.67
2022-11-28T10:25:31.047Z,8.93
2022-11-28T10:27:58.925Z,9.33
2022-11-28T10:30:28.824Z,9.27
2022-11-28T10:33:01.880Z,8.33
2022-11-28T10:35:40.488Z,8.67
2022-11-28T10:38:13.993Z,8.30
2022-11-28T10:40:51.022Z,8.57
2022-11-28T10:43:30.171Z,8.87
2022-11-28T10:46:09.146Z,9.00
2022-11-28T10:48:46.744Z,7.93
2022-11-28T10:51:26.673Z,8.07
2022-11-28T10:54:06.141Z,8.33
2022-11-28T10:56:44.685Z,7.87
2022-11-28T10:59:22.367Z,9.27
2022-11-28T11:01:52.005Z,9.00
2022-11-28T11:04:22.902Z,9.23
2022-11-28T11:07:16.292Z,10.27
2022-11-28T11:09:46.904Z,9.53
2022-11-28T11:12:21.975Z,10.03
2022-11-28T11:14:49.926Z,9.53
2022-11-28T11:17:36.209Z,11.63
2022-11-28T11:20:26.970Z,11.53
2022-11-28T11:22:57.674Z,11.53
2022-11-28T11:25:26.934Z,11.17
2022-11-28T11:27:57.180Z,11.97
2022-11-28T11:30:31.116Z,10.47
2022-11-28T11:33:01.607Z,9.73
2022-11-28T11:35:32.287Z,8.50
2022-11-28T11:38:18.074Z,9.43
2022-11-28T11:40:46.189Z,10.63
2022-11-28T11:43:29.128Z,9.50
2022-11-28T11:46:09.089Z,9.27
2022-11-28T11:48:39.460Z,10.80
2022-11-28T11:51:07.557Z,12.73
2022-11-28T11:53:36.796Z,12.57
2022-11-28T11:56:05.542Z,10.53
2022-11-28T11:58:48.616Z,9.50
2022-11-28T12:01:19.467Z,10.77
2022-11-28T12:03:54.677Z,14.37
2022-11-28T12:06:26.201Z,10.97
2022-11-28T12:09:03.305Z,10.17
2022-11-28T12:11:41.270Z,8.10
2022-11-28T12:14:27.131Z,9.40
2022-11-28T12:17:25.551Z,8.70
2022-11-28T12:20:07.481Z,8.53
2022-11-28T12:22:48.846Z,8.93
2022-11-28T12:25:26.861Z,11.00
2022-11-28T12:28:05.273Z,11.13
2022-11-28T12:30:49.271Z,12.17
2022-11-28T12:33:39.131Z,13.27
2022-11-28T12:36:13.346Z,11.37
2022-11-28T12:39:00.859Z,9.47
2022-11-28T12:41:57.683Z,12.50
2022-11-28T12:44:41.094Z,13.67
2022-11-28T12:47:17.491Z,11.07
2022-11-28T12:49:57.359Z,12.93
2022-11-28T12:52:39.332Z,11.37
2022-11-28T12:55:21.850Z,11.37
2022-11-28T12:58:00.503Z,10.60
2022-11-28T13:00:33.460Z,10.93
2022-11-28T13:03:12.272Z,11.40
2022-11-28T13:05:51.683Z,10.40
2022-11-28T13:08:33.473Z,10.20
2022-11-28T13:11:13.624Z,8.77
2022-11-28T13:13:47.825Z,11.97
2022-11-28T13:16:26.493Z,15.83
2022-11-28T13:19:03.326Z,18.63
2022-11-28T13:21:40.981Z,18.23
2022-11-28T13:24:18.617Z,14.77
2022-11-28T13:26:52.500Z,16.13
2022-11-28T13:29:34.741Z,15.10
2022-11-28T13:32:10.279Z,19.20
2022-11-28T13:34:39.767Z,19.97
2022-11-28T13:40:09.481Z,9.70
2022-11-28T13:45:34.333Z,7.30
2022-11-28T13:51:31.851Z,10.23
2022-11-28T13:54:45.687Z,8.47
2022-11-28T13:57:28.547Z,7.97
2022-11-28T14:00:04.485Z,6.50
2022-11-28T14:02:44.485Z,7.30
2022-11-28T14:05:29.934Z,9.47
2022-11-28T14:07:59.036Z,8.63
2022-11-28T14:10:50.828Z,7.97
2022-11-28T14:13:45.281Z,6.37
2022-11-28T14:16:28.310Z,8.83
2022-11-28T14:19:22.073Z,7.03
2022-11-28T14:22:01.753Z,7.20
2022-11-28T14:25:10.294Z,6.53
2022-11-28T14:27:42.006Z,6.03
2022-11-28T14:30:24.951Z,7.50
2022-11-28T14:32:57.754Z,8.30
2022-11-28T14:36:06.562Z,6.80
2022-11-28T14:39:02.203Z,7.43
2022-11-28T14:41:30.075Z,8.77
2022-11-28T14:44:46.206Z,8.30
2022-11-28T14:47:17.362Z,9.00
2022-11-28T14:49:45.678Z,7.97
2022-11-28T14:52:41.129Z,7.67
2022-11-28T14:55:20.575Z,6.97
2022-11-28T14:57:58.208Z,7.80
2022-11-28T15:00:28.963Z,7.17
2022-11-28T15:03:21.165Z,8.93
2022-11-28T15:05:51.998Z,9.43
2022-11-28T15:08:48.647Z,8.67
2022-11-28T15:11:36.466Z,14.00
2022-11-28T15:14:12.914Z,12.20
2022-11-28T15:16:50.552Z,8.23
2022-11-28T15:19:28.181Z,9.73
2022-11-28T15:21:56.750Z,10.30
2022-11-28T15:24:30.555Z,9.10
2022-11-28T15:26:59.911Z,10.33
2022-11-28T15:29:29.734Z,9.97
2022-11-28T15:31:59.863Z,12.20
2022-11-28T15:34:31.047Z,13.70
2022-11-28T15:37:01.620Z,14.37
2022-11-28T15:39:36.581Z,13.97
2022-11-28T15:42:06.778Z,13.47
2022-11-28T15:44:39.148Z,10.83
2022-11-28T15:47:19.592Z,13.53
2022-11-28T15:49:47.592Z,11.57
2022-11-28T15:52:18.584Z,10.27
2022-11-28T15:54:51.444Z,10.77
2022-11-28T15:57:20.761Z,9.50
2022-11-28T15:59:48.665Z,10.70
2022-11-28T16:02:22.992Z,14.00
2022-11-28T16:04:54.557Z,10.83
2022-11-28T16:07:22.587Z,16.60
2022-11-28T16:09:58.504Z,9.40
2022-11-28T16:12:27.209Z,9.90
2022-11-28T16:15:01.335Z,10.30
2022-11-28T16:17:33.394Z,10.37
2022-11-28T16:20:03.696Z,9.73
2022-11-28T16:22:36.617Z,31.67
2022-11-28T16:25:22.793Z,35.73
2022-11-28T16:27:53.281Z,68.37
2022-11-28T16:30:34.755Z,38.70
2022-11-28T16:33:02.843Z,26.33
2022-11-28T16:35:34.273Z,21.40
2022-11-28T16:38:06.931Z,9.53
2022-11-28T16:40:36.411Z,10.10
2022-11-28T16:43:06.217Z,10.87
2022-11-28T16:45:35.071Z,8.00
2022-11-28T16:48:09.513Z,10.03
2022-11-28T16:50:38.449Z,9.43
2022-11-28T16:53:06.808Z,8.07
2022-11-28T16:55:44.658Z,8.80
2022-11-28T16:58:16.153Z,7.83
2022-11-28T17:00:47.795Z,10.60
2022-11-28T17:03:49.683Z,11.23
2022-11-28T17:06:26.103Z,9.10
2022-11-28T17:08:54.260Z,13.63
2022-11-28T17:11:27.740Z,14.87
2022-11-28T17:13:57.672Z,14.20
2022-11-28T17:16:27.609Z,12.23
2022-11-28T17:18:55.481Z,10.83
2022-11-28T17:21:30.213Z,11.37
2022-11-28T17:23:58.194Z,10.27
2022-11-28T17:26:27.480Z,12.80
2022-11-28T17:28:55.727Z,14.40
2022-11-28T17:31:24.774Z,11.93
2022-11-28T17:33:52.729Z,12.53
2022-11-28T17:36:20.678Z,12.27
2022-11-28T17:38:48.782Z,20.20
2022-11-28T17:41:16.864Z,14.70
2022-11-28T17:43:46.470Z,16.00
2022-11-28T17:46:14.338Z,17.33
2022-11-28T17:48:42.207Z,17.47
2022-11-28T17:51:11.190Z,22.90
2022-11-28T17:53:39.356Z,18.47
2022-11-28T17:56:07.964Z,17.20
2022-11-28T17:58:35.771Z,19.73
2022-11-28T18:01:11.127Z,16.03
2022-11-28T18:03:39.949Z,13.80
2022-11-28T18:06:08.527Z,14.43
2022-11-28T18:08:36.930Z,15.07
2022-11-28T18:11:06.674Z,15.03
2022-11-28T18:13:35.283Z,13.70
2022-11-28T18:16:04.990Z,15.83
2022-11-28T18:18:34.586Z,14.93
2022-11-28T18:21:02.431Z,12.60
2022-11-28T18:23:30.365Z,13.20
2022-11-28T18:25:58.347Z,12.53
2022-11-28T18:28:26.393Z,13.53
2022-11-28T18:30:54.268Z,14.40
2022-11-28T18:33:23.806Z,16.70
2022-11-28T18:35:51.667Z,13.70
2022-11-28T18:38:19.509Z,12.53
2022-11-28T18:40:47.444Z,12.87
2022-11-28T18:43:15.435Z,12.40
2022-11-28T18:45:43.378Z,12.97
2022-11-28T18:48:11.228Z,11.93
2022-11-28T18:50:40.441Z,11.90
2022-11-28T18:53:08.254Z,11.87
2022-11-28T18:55:36.571Z,11.83
2022-11-28T18:58:04.482Z,12.00
2022-11-28T19:00:32.339Z,12.60
2022-11-28T19:03:00.212Z,12.93
2022-11-28T19:05:28.087Z,12.83
2022-11-28T19:07:58.907Z,12.50
2022-11-28T19:10:26.832Z,12.37
2022-11-28T19:12:54.795Z,12.10
2022-11-28T19:15:22.740Z,12.30
2022-11-28T19:17:50.664Z,11.97
2022-11-28T19:20:18.929Z,12.17
2022-11-28T19:22:47.238Z,12.03
2022-11-28T19:25:16.852Z,12.53
2022-11-28T19:27:44.774Z,11.70
2022-11-28T19:30:13.935Z,12.90
2022-11-28T19:32:41.845Z,11.47
2022-11-28T19:35:10.043Z,11.33
2022-11-28T19:37:38.021Z,12.33
2022-11-28T19:40:07.318Z,12.70
2022-11-28T19:42:36.764Z,13.03
2022-11-28T19:45:05.226Z,13.03
2022-11-28T19:47:33.255Z,12.87
2022-11-28T19:50:01.135Z,12.63
2022-11-28T19:52:29.463Z,12.87
2022-11-28T19:54:57.447Z,13.27
2022-11-28T19:57:26.330Z,12.77
2022-11-28T19:59:55.543Z,13.90
2022-11-28T20:02:23.662Z,13.43
2022-11-28T20:04:51.551Z,12.90
2022-11-28T20:07:19.460Z,13.17
2022-11-28T20:09:47.508Z,14.03
2022-11-28T20:12:15.819Z,12.37
2022-11-28T20:14:43.666Z,13.53
2022-11-28T20:17:12.952Z,13.23
2022-11-28T20:19:41.157Z,13.30
2022-11-28T20:22:09.335Z,13.97
2022-11-28T20:24:37.218Z,14.03
2022-11-28T20:27:05.303Z,13.37
2022-11-28T20:29:33.433Z,12.90
2022-11-28T20:32:01.546Z,12.47
2022-11-28T20:34:30.860Z,14.43
2022-11-28T20:36:59.948Z,13.07
2022-11-28T20:39:27.806Z,13.80
2022-11-28T20:41:55.785Z,14.67
2022-11-28T20:44:24.047Z,14.27
2022-11-28T20:46:52.015Z,14.20
2022-11-28T20:49:20.415Z,14.03
2022-11-28T20:51:50.375Z,13.43
2022-11-28T20:54:19.375Z,14.37
2022-11-28T20:59:35.616Z,13.60
2022-11-28T21:02:03.563Z,14.50
2022-11-28T21:04:32.598Z,13.47
2022-11-28T21:07:01.823Z,14.30
2022-11-28T21:09:29.667Z,14.90
2022-11-28T21:11:59.199Z,14.37
2022-11-28T21:14:28.857Z,13.07
2022-11-28T21:16:56.891Z,13.90
2022-11-28T21:19:24.918Z,15.63
2022-11-28T21:21:52.945Z,15.30
2022-11-28T21:24:22.662Z,14.90
2022-11-28T21:26:54.008Z,15.20
2022-11-28T21:29:22.719Z,15.10
2022-11-28T21:31:50.765Z,14.63
2022-11-28T21:34:19.412Z,14.17
2022-11-28T21:36:47.526Z,14.57
2022-11-28T21:39:17.017Z,14.37
2022-11-28T21:41:46.398Z,14.87
2022-11-28T21:44:14.236Z,15.87
2022-11-28T21:46:42.168Z,13.67
2022-11-28T21:49:10.081Z,14.97
2022-11-28T21:51:37.970Z,14.43
2022-11-28T21:54:06.149Z,15.00
2022-11-28T21:56:34.060Z,15.73
2022-11-28T21:59:04.430Z,15.40
2022-11-28T22:01:32.455Z,16.30
2022-11-28T22:04:02.725Z,17.07
2022-11-28T22:06:31.418Z,16.53
2022-11-28T22:09:03.271Z,15.77
2022-11-28T22:11:35.434Z,16.50
2022-11-28T22:14:04.683Z,16.53
2022-11-28T22:16:32.608Z,16.20
2022-11-28T22:19:01.700Z,15.47
2022-11-28T22:24:17.627Z,16.97
2022-11-28T22:26:45.577Z,17.63
2022-11-28T22:29:15.112Z,17.57
2022-11-28T22:31:43.064Z,16.47
2022-11-28T22:34:11.137Z,17.87
2022-11-28T22:36:39.190Z,17.47
2022-11-28T22:39:07.282Z,16.87
2022-11-28T22:41:35.430Z,17.70
2022-11-28T22:44:04.226Z,16.23
2022-11-28T22:46:34.117Z,18.53
2022-11-28T22:49:02.805Z,16.97
2022-11-28T22:51:31.864Z,18.23
2022-11-28T22:54:01.258Z,18.17
2022-11-28T22:56:29.977Z,17.70
2022-11-28T22:58:58.016Z,17.33
2022-11-28T23:01:29.196Z,15.87
2022-11-28T23:03:59.066Z,16.30
2022-11-28T23:06:29.068Z,17.43
2022-11-28T23:08:57.631Z,17.53
2022-11-28T23:11:27.553Z,17.77
2022-11-28T23:13:55.934Z,17.23
2022-11-28T23:16:25.641Z,18.40
2022-11-28T23:18:55.465Z,17.43
2022-11-28T23:21:27.162Z,19.17
2022-11-28T23:23:55.015Z,18.13
2022-11-28T23:26:25.215Z,17.27
2022-11-28T23:28:53.375Z,16.90
2022-11-28T23:31:23.898Z,18.77
2022-11-28T23:33:52.623Z,18.00
2022-11-28T23:36:22.209Z,17.57
2022-11-28T23:38:53.274Z,18.00
2022-11-28T23:41:21.523Z,16.70
2022-11-28T23:43:49.840Z,18.53
2022-11-28T23:46:19.728Z,17.10
2022-11-28T23:48:47.962Z,18.77
2022-11-28T23:51:17.696Z,18.57
2022-11-28T23:53:45.860Z,18.53
2022-11-28T23:56:17.135Z,17.03
2022-11-28T23:58:45.656Z,19.33
